Port Hope, Michigan
Current Conditions -  °F | °C
As of 2:14 AM on Saturday 20 Dec 2014 (Local Time) from KBAX Reporting Station
Broken Clouds Broken Clouds  
Wind Chill: 14°   Ceiling: 2000
Heat Index: 14°   Visibility: 10mi
Dew Point: 13°   Wind: 0mph
Humidity: 96%   Direction: NA
Pressure: 30.29"   Gusts: NA
Location:  43.94°N, 82.71°W
Report Text: KBAX 200714Z AUTO 00000KT 10SM BKN020 M10/M10 A3029 RMK AO2 T11001105
Loading
Personal Weather Stations






























Interactive Weather Map New forecast layout! Learn more

10-Day Weather Forecast

Advertisements
Track Severe Weather on mobile